sensor_id;sensor_type;location;lat;lon;timestamp;P1;durP1;ratioP1;P2;durP2;ratioP2
50569;SDS011;36525;49.398;7.614;2022-07-15T00:00:31;6.03;;;1.65;;
50569;SDS011;36525;49.398;7.614;2022-07-15T00:02:59;5.57;;;1.83;;
50569;SDS011;36525;49.398;7.614;2022-07-15T00:05:26;6.15;;;1.95;;
50569;SDS011;36525;49.398;7.614;2022-07-15T00:07:53;8.13;;;1.42;;
50569;SDS011;36525;49.398;7.614;2022-07-15T00:10:20;9.13;;;1.85;;
50569;SDS011;36525;49.398;7.614;2022-07-15T00:12:51;5.85;;;1.50;;
50569;SDS011;36525;49.398;7.614;2022-07-15T00:15:22;4.67;;;1.70;;
50569;SDS011;36525;49.398;7.614;2022-07-15T00:17:52;7.20;;;1.75;;
50569;SDS011;36525;49.398;7.614;2022-07-15T00:20:20;4.50;;;1.45;;
50569;SDS011;36525;49.398;7.614;2022-07-15T00:22:49;6.85;;;1.63;;
50569;SDS011;36525;49.398;7.614;2022-07-15T00:25:16;6.28;;;2.22;;
50569;SDS011;36525;49.398;7.614;2022-07-15T00:27:53;5.05;;;1.50;;
50569;SDS011;36525;49.398;7.614;2022-07-15T00:30:31;5.80;;;1.55;;
50569;SDS011;36525;49.398;7.614;2022-07-15T00:33:04;5.05;;;1.58;;
50569;SDS011;36525;49.398;7.614;2022-07-15T00:35:33;5.20;;;1.63;;
50569;SDS011;36525;49.398;7.614;2022-07-15T00:38:02;6.88;;;1.70;;
50569;SDS011;36525;49.398;7.614;2022-07-15T00:40:40;8.65;;;1.65;;
50569;SDS011;36525;49.398;7.614;2022-07-15T00:43:13;3.53;;;1.50;;
50569;SDS011;36525;49.398;7.614;2022-07-15T00:45:42;3.70;;;1.48;;
50569;SDS011;36525;49.398;7.614;2022-07-15T00:48:10;6.18;;;1.98;;
50569;SDS011;36525;49.398;7.614;2022-07-15T00:50:44;3.15;;;1.60;;
50569;SDS011;36525;49.398;7.614;2022-07-15T00:53:16;4.18;;;1.50;;
50569;SDS011;36525;49.398;7.614;2022-07-15T00:55:46;6.00;;;1.80;;
50569;SDS011;36525;49.398;7.614;2022-07-15T00:58:17;4.82;;;1.67;;
50569;SDS011;36525;49.398;7.614;2022-07-15T01:00:47;6.53;;;1.85;;
50569;SDS011;36525;49.398;7.614;2022-07-15T01:03:16;9.55;;;2.10;;
50569;SDS011;36525;49.398;7.614;2022-07-15T01:05:45;5.30;;;1.60;;
50569;SDS011;36525;49.398;7.614;2022-07-15T01:08:14;4.95;;;1.55;;
50569;SDS011;36525;49.398;7.614;2022-07-15T01:10:44;6.78;;;1.80;;
50569;SDS011;36525;49.398;7.614;2022-07-15T01:13:13;4.70;;;1.75;;
50569;SDS011;36525;49.398;7.614;2022-07-15T01:15:40;5.50;;;1.70;;
50569;SDS011;36525;49.398;7.614;2022-07-15T01:18:07;5.57;;;1.90;;
50569;SDS011;36525;49.398;7.614;2022-07-15T01:20:34;11.60;;;1.98;;
50569;SDS011;36525;49.398;7.614;2022-07-15T01:23:05;6.70;;;2.00;;
50569;SDS011;36525;49.398;7.614;2022-07-15T01:25:35;4.97;;;1.80;;
50569;SDS011;36525;49.398;7.614;2022-07-15T01:28:03;7.22;;;1.98;;
50569;SDS011;36525;49.398;7.614;2022-07-15T01:30:32;6.45;;;1.50;;
50569;SDS011;36525;49.398;7.614;2022-07-15T01:32:59;4.78;;;1.60;;
50569;SDS011;36525;49.398;7.614;2022-07-15T01:35:26;4.60;;;1.67;;
50569;SDS011;36525;49.398;7.614;2022-07-15T01:37:54;3.65;;;1.60;;
50569;SDS011;36525;49.398;7.614;2022-07-15T01:40:21;5.50;;;1.60;;
50569;SDS011;36525;49.398;7.614;2022-07-15T01:42:48;5.53;;;1.50;;
50569;SDS011;36525;49.398;7.614;2022-07-15T01:45:15;4.18;;;1.67;;
50569;SDS011;36525;49.398;7.614;2022-07-15T01:47:43;5.28;;;1.88;;
50569;SDS011;36525;49.398;7.614;2022-07-15T01:50:11;5.30;;;2.05;;
50569;SDS011;36525;49.398;7.614;2022-07-15T01:52:39;6.78;;;1.92;;
50569;SDS011;36525;49.398;7.614;2022-07-15T01:55:06;4.03;;;2.00;;
50569;SDS011;36525;49.398;7.614;2022-07-15T01:57:35;6.72;;;1.63;;
50569;SDS011;36525;49.398;7.614;2022-07-15T02:00:03;5.68;;;1.90;;
50569;SDS011;36525;49.398;7.614;2022-07-15T02:02:34;5.25;;;1.60;;
50569;SDS011;36525;49.398;7.614;2022-07-15T02:05:02;4.28;;;1.60;;
50569;SDS011;36525;49.398;7.614;2022-07-15T02:07:29;4.38;;;1.80;;
50569;SDS011;36525;49.398;7.614;2022-07-15T02:09:56;4.20;;;1.80;;
50569;SDS011;36525;49.398;7.614;2022-07-15T02:12:23;3.67;;;1.60;;
50569;SDS011;36525;49.398;7.614;2022-07-15T02:14:51;7.68;;;1.83;;
50569;SDS011;36525;49.398;7.614;2022-07-15T02:17:18;5.82;;;1.77;;
50569;SDS011;36525;49.398;7.614;2022-07-15T02:19:46;8.40;;;1.70;;
50569;SDS011;36525;49.398;7.614;2022-07-15T02:22:13;2.95;;;1.58;;
50569;SDS011;36525;49.398;7.614;2022-07-15T02:24:40;4.57;;;1.40;;
50569;SDS011;36525;49.398;7.614;2022-07-15T02:27:08;5.07;;;1.88;;
50569;SDS011;36525;49.398;7.614;2022-07-15T02:29:35;4.90;;;1.80;;
50569;SDS011;36525;49.398;7.614;2022-07-15T02:32:02;4.97;;;1.40;;
50569;SDS011;36525;49.398;7.614;2022-07-15T02:34:30;3.88;;;1.50;;
50569;SDS011;36525;49.398;7.614;2022-07-15T02:36:57;6.72;;;1.48;;
50569;SDS011;36525;49.398;7.614;2022-07-15T02:39:25;3.25;;;1.58;;
50569;SDS011;36525;49.398;7.614;2022-07-15T02:41:52;5.13;;;1.40;;
50569;SDS011;36525;49.398;7.614;2022-07-15T02:44:19;4.53;;;1.60;;
50569;SDS011;36525;49.398;7.614;2022-07-15T02:46:46;4.38;;;1.58;;
50569;SDS011;36525;49.398;7.614;2022-07-15T02:49:13;8.77;;;2.20;;
50569;SDS011;36525;49.398;7.614;2022-07-15T02:51:40;5.28;;;1.27;;
50569;SDS011;36525;49.398;7.614;2022-07-15T02:54:07;3.25;;;1.55;;
50569;SDS011;36525;49.398;7.614;2022-07-15T02:56:34;4.65;;;1.95;;
50569;SDS011;36525;49.398;7.614;2022-07-15T02:59:01;5.57;;;1.77;;
50569;SDS011;36525;49.398;7.614;2022-07-15T03:01:28;7.15;;;2.00;;
50569;SDS011;36525;49.398;7.614;2022-07-15T03:03:55;7.60;;;1.95;;
50569;SDS011;36525;49.398;7.614;2022-07-15T03:06:23;15.13;;;2.13;;
50569;SDS011;36525;49.398;7.614;2022-07-15T03:08:50;6.20;;;1.50;;
50569;SDS011;36525;49.398;7.614;2022-07-15T03:11:17;6.32;;;1.85;;
50569;SDS011;36525;49.398;7.614;2022-07-15T03:13:44;7.13;;;1.70;;
50569;SDS011;36525;49.398;7.614;2022-07-15T03:16:10;6.85;;;1.67;;
50569;SDS011;36525;49.398;7.614;2022-07-15T03:18:37;11.07;;;1.88;;
50569;SDS011;36525;49.398;7.614;2022-07-15T03:21:04;4.93;;;1.55;;
50569;SDS011;36525;49.398;7.614;2022-07-15T03:23:31;3.50;;;1.40;;
50569;SDS011;36525;49.398;7.614;2022-07-15T03:25:58;4.65;;;1.60;;
50569;SDS011;36525;49.398;7.614;2022-07-15T03:28:25;3.67;;;1.27;;
50569;SDS011;36525;49.398;7.614;2022-07-15T03:30:52;3.85;;;1.67;;
50569;SDS011;36525;49.398;7.614;2022-07-15T03:33:19;4.07;;;1.58;;
50569;SDS011;36525;49.398;7.614;2022-07-15T03:35:46;5.85;;;1.92;;
50569;SDS011;36525;49.398;7.614;2022-07-15T03:38:13;7.32;;;1.70;;
50569;SDS011;36525;49.398;7.614;2022-07-15T03:40:40;7.93;;;1.70;;
50569;SDS011;36525;49.398;7.614;2022-07-15T03:43:07;11.63;;;2.25;;
50569;SDS011;36525;49.398;7.614;2022-07-15T03:45:34;9.57;;;2.03;;
50569;SDS011;36525;49.398;7.614;2022-07-15T03:48:02;10.80;;;1.70;;
50569;SDS011;36525;49.398;7.614;2022-07-15T03:50:29;9.43;;;1.80;;
50569;SDS011;36525;49.398;7.614;2022-07-15T03:52:56;5.00;;;1.48;;
50569;SDS011;36525;49.398;7.614;2022-07-15T03:55:23;5.03;;;1.60;;
50569;SDS011;36525;49.398;7.614;2022-07-15T03:57:50;4.32;;;1.48;;
50569;SDS011;36525;49.398;7.614;2022-07-15T04:00:17;6.95;;;1.90;;
50569;SDS011;36525;49.398;7.614;2022-07-15T04:02:44;5.55;;;1.52;;
50569;SDS011;36525;49.398;7.614;2022-07-15T04:05:13;4.78;;;1.92;;
50569;SDS011;36525;49.398;7.614;2022-07-15T04:07:41;9.65;;;1.95;;
50569;SDS011;36525;49.398;7.614;2022-07-15T04:10:08;7.28;;;2.00;;
50569;SDS011;36525;49.398;7.614;2022-07-15T04:12:35;5.95;;;1.58;;
50569;SDS011;36525;49.398;7.614;2022-07-15T04:15:09;4.95;;;1.42;;
50569;SDS011;36525;49.398;7.614;2022-07-15T04:17:36;5.82;;;1.80;;
50569;SDS011;36525;49.398;7.614;2022-07-15T04:20:03;7.10;;;1.80;;
50569;SDS011;36525;49.398;7.614;2022-07-15T04:22:38;4.88;;;1.83;;
50569;SDS011;36525;49.398;7.614;2022-07-15T04:25:10;7.75;;;1.73;;
50569;SDS011;36525;49.398;7.614;2022-07-15T04:27:41;6.57;;;1.35;;
50569;SDS011;36525;49.398;7.614;2022-07-15T04:30:10;7.20;;;1.42;;
50569;SDS011;36525;49.398;7.614;2022-07-15T04:32:38;9.30;;;1.70;;
50569;SDS011;36525;49.398;7.614;2022-07-15T04:35:05;5.13;;;1.60;;
50569;SDS011;36525;49.398;7.614;2022-07-15T04:37:33;4.82;;;1.70;;
50569;SDS011;36525;49.398;7.614;2022-07-15T04:40:00;8.48;;;1.83;;
50569;SDS011;36525;49.398;7.614;2022-07-15T04:42:27;6.53;;;1.65;;
50569;SDS011;36525;49.398;7.614;2022-07-15T04:44:54;8.45;;;2.30;;
50569;SDS011;36525;49.398;7.614;2022-07-15T04:47:21;4.05;;;1.50;;
50569;SDS011;36525;49.398;7.614;2022-07-15T04:49:48;9.63;;;2.00;;
50569;SDS011;36525;49.398;7.614;2022-07-15T04:52:33;6.95;;;1.60;;
50569;SDS011;36525;49.398;7.614;2022-07-15T04:55:00;4.63;;;1.52;;
50569;SDS011;36525;49.398;7.614;2022-07-15T04:57:28;4.50;;;1.48;;
50569;SDS011;36525;49.398;7.614;2022-07-15T04:59:55;5.63;;;1.50;;
50569;SDS011;36525;49.398;7.614;2022-07-15T05:02:22;4.90;;;1.73;;
50569;SDS011;36525;49.398;7.614;2022-07-15T05:04:49;4.63;;;1.38;;
50569;SDS011;36525;49.398;7.614;2022-07-15T05:07:16;6.88;;;1.70;;
50569;SDS011;36525;49.398;7.614;2022-07-15T05:09:43;5.45;;;1.50;;
50569;SDS011;36525;49.398;7.614;2022-07-15T05:12:10;5.53;;;1.52;;
50569;SDS011;36525;49.398;7.614;2022-07-15T05:14:37;5.13;;;1.38;;
50569;SDS011;36525;49.398;7.614;2022-07-15T05:17:07;5.07;;;1.40;;
50569;SDS011;36525;49.398;7.614;2022-07-15T05:19:35;7.00;;;1.63;;
50569;SDS011;36525;49.398;7.614;2022-07-15T05:22:02;5.05;;;1.52;;
50569;SDS011;36525;49.398;7.614;2022-07-15T05:24:30;9.35;;;1.50;;
50569;SDS011;36525;49.398;7.614;2022-07-15T05:26:57;6.45;;;1.73;;
50569;SDS011;36525;49.398;7.614;2022-07-15T05:29:25;5.32;;;1.50;;
50569;SDS011;36525;49.398;7.614;2022-07-15T05:31:52;5.70;;;1.45;;
50569;SDS011;36525;49.398;7.614;2022-07-15T05:34:19;7.88;;;2.03;;
50569;SDS011;36525;49.398;7.614;2022-07-15T05:36:46;6.03;;;1.98;;
50569;SDS011;36525;49.398;7.614;2022-07-15T05:39:13;5.05;;;1.50;;
50569;SDS011;36525;49.398;7.614;2022-07-15T05:41:40;4.55;;;1.33;;
50569;SDS011;36525;49.398;7.614;2022-07-15T05:44:13;5.03;;;1.40;;
50569;SDS011;36525;49.398;7.614;2022-07-15T05:46:40;4.78;;;1.55;;
50569;SDS011;36525;49.398;7.614;2022-07-15T05:49:07;10.82;;;2.35;;
50569;SDS011;36525;49.398;7.614;2022-07-15T05:51:34;6.65;;;1.33;;
50569;SDS011;36525;49.398;7.614;2022-07-15T05:54:01;4.82;;;1.60;;
50569;SDS011;36525;49.398;7.614;2022-07-15T05:56:29;5.72;;;1.45;;
50569;SDS011;36525;49.398;7.614;2022-07-15T05:58:56;5.95;;;1.55;;
50569;SDS011;36525;49.398;7.614;2022-07-15T06:01:23;4.28;;;1.40;;
50569;SDS011;36525;49.398;7.614;2022-07-15T06:03:50;4.78;;;1.33;;
50569;SDS011;36525;49.398;7.614;2022-07-15T06:06:17;6.32;;;1.50;;
50569;SDS011;36525;49.398;7.614;2022-07-15T06:08:44;5.72;;;1.20;;
50569;SDS011;36525;49.398;7.614;2022-07-15T06:11:11;4.85;;;1.50;;
50569;SDS011;36525;49.398;7.614;2022-07-15T06:13:39;5.40;;;1.55;;
50569;SDS011;36525;49.398;7.614;2022-07-15T06:16:06;7.25;;;1.50;;
50569;SDS011;36525;49.398;7.614;2022-07-15T06:18:34;9.70;;;1.50;;
50569;SDS011;36525;49.398;7.614;2022-07-15T06:21:01;8.18;;;1.65;;
50569;SDS011;36525;49.398;7.614;2022-07-15T06:23:28;6.68;;;1.70;;
50569;SDS011;36525;49.398;7.614;2022-07-15T06:25:55;5.88;;;1.38;;
50569;SDS011;36525;49.398;7.614;2022-07-15T06:28:23;7.97;;;1.55;;
50569;SDS011;36525;49.398;7.614;2022-07-15T06:30:50;5.95;;;1.98;;
50569;SDS011;36525;49.398;7.614;2022-07-15T06:33:17;8.82;;;1.60;;
50569;SDS011;36525;49.398;7.614;2022-07-15T06:35:44;3.03;;;1.30;;
50569;SDS011;36525;49.398;7.614;2022-07-15T06:38:11;5.68;;;1.67;;
50569;SDS011;36525;49.398;7.614;2022-07-15T06:40:38;16.83;;;1.80;;
50569;SDS011;36525;49.398;7.614;2022-07-15T06:43:05;6.43;;;1.27;;
50569;SDS011;36525;49.398;7.614;2022-07-15T06:45:32;7.45;;;1.52;;
50569;SDS011;36525;49.398;7.614;2022-07-15T06:47:59;5.72;;;1.35;;
50569;SDS011;36525;49.398;7.614;2022-07-15T06:50:26;5.97;;;1.48;;
50569;SDS011;36525;49.398;7.614;2022-07-15T06:52:53;4.53;;;1.20;;
50569;SDS011;36525;49.398;7.614;2022-07-15T06:55:20;7.28;;;1.48;;
50569;SDS011;36525;49.398;7.614;2022-07-15T06:57:47;7.72;;;1.40;;
50569;SDS011;36525;49.398;7.614;2022-07-15T07:00:14;4.80;;;1.10;;
50569;SDS011;36525;49.398;7.614;2022-07-15T07:02:41;6.85;;;1.55;;
50569;SDS011;36525;49.398;7.614;2022-07-15T07:05:13;12.25;;;1.70;;
50569;SDS011;36525;49.398;7.614;2022-07-15T07:07:41;6.32;;;1.30;;
50569;SDS011;36525;49.398;7.614;2022-07-15T07:10:08;5.72;;;1.40;;
50569;SDS011;36525;49.398;7.614;2022-07-15T07:12:36;8.50;;;1.52;;
50569;SDS011;36525;49.398;7.614;2022-07-15T07:15:03;5.70;;;1.20;;
50569;SDS011;36525;49.398;7.614;2022-07-15T07:17:33;6.50;;;1.65;;
50569;SDS011;36525;49.398;7.614;2022-07-15T07:20:00;11.30;;;1.42;;
50569;SDS011;36525;49.398;7.614;2022-07-15T07:22:27;8.70;;;1.38;;
50569;SDS011;36525;49.398;7.614;2022-07-15T07:24:54;6.93;;;1.17;;
50569;SDS011;36525;49.398;7.614;2022-07-15T07:27:21;4.00;;;0.93;;
50569;SDS011;36525;49.398;7.614;2022-07-15T07:29:48;8.98;;;0.90;;
50569;SDS011;36525;49.398;7.614;2022-07-15T07:32:15;2.92;;;1.00;;
50569;SDS011;36525;49.398;7.614;2022-07-15T07:34:42;7.05;;;0.90;;
50569;SDS011;36525;49.398;7.614;2022-07-15T07:37:10;4.72;;;0.90;;
50569;SDS011;36525;49.398;7.614;2022-07-15T07:39:40;5.43;;;1.00;;
50569;SDS011;36525;49.398;7.614;2022-07-15T07:42:07;6.45;;;1.30;;
50569;SDS011;36525;49.398;7.614;2022-07-15T07:44:34;6.43;;;0.90;;
50569;SDS011;36525;49.398;7.614;2022-07-15T07:47:01;12.93;;;1.40;;
50569;SDS011;36525;49.398;7.614;2022-07-15T07:49:28;3.78;;;0.90;;
50569;SDS011;36525;49.398;7.614;2022-07-15T07:52:03;7.13;;;1.40;;
50569;SDS011;36525;49.398;7.614;2022-07-15T07:54:31;4.80;;;1.25;;
50569;SDS011;36525;49.398;7.614;2022-07-15T07:56:58;5.45;;;1.25;;
50569;SDS011;36525;49.398;7.614;2022-07-15T07:59:26;4.68;;;1.00;;
50569;SDS011;36525;49.398;7.614;2022-07-15T08:01:53;7.75;;;1.13;;
50569;SDS011;36525;49.398;7.614;2022-07-15T08:04:20;2.75;;;0.90;;
50569;SDS011;36525;49.398;7.614;2022-07-15T08:06:48;5.05;;;1.00;;
50569;SDS011;36525;49.398;7.614;2022-07-15T08:09:15;5.18;;;0.90;;
50569;SDS011;36525;49.398;7.614;2022-07-15T08:11:42;5.47;;;0.90;;
50569;SDS011;36525;49.398;7.614;2022-07-15T08:14:11;5.10;;;1.08;;
50569;SDS011;36525;49.398;7.614;2022-07-15T08:16:38;5.57;;;1.13;;
50569;SDS011;36525;49.398;7.614;2022-07-15T08:19:08;4.85;;;1.05;;
50569;SDS011;36525;49.398;7.614;2022-07-15T08:21:40;3.37;;;0.93;;
50569;SDS011;36525;49.398;7.614;2022-07-15T08:24:07;8.40;;;0.95;;
50569;SDS011;36525;49.398;7.614;2022-07-15T08:26:35;4.15;;;0.82;;
50569;SDS011;36525;49.398;7.614;2022-07-15T08:29:04;4.35;;;1.05;;
50569;SDS011;36525;49.398;7.614;2022-07-15T08:31:32;6.75;;;1.15;;
50569;SDS011;36525;49.398;7.614;2022-07-15T08:34:02;6.47;;;1.25;;
50569;SDS011;36525;49.398;7.614;2022-07-15T08:36:32;5.65;;;0.93;;
50569;SDS011;36525;49.398;7.614;2022-07-15T08:38:59;4.57;;;0.85;;
50569;SDS011;36525;49.398;7.614;2022-07-15T08:41:26;6.22;;;1.45;;
50569;SDS011;36525;49.398;7.614;2022-07-15T08:43:53;4.28;;;1.17;;
50569;SDS011;36525;49.398;7.614;2022-07-15T08:46:20;5.50;;;0.93;;
50569;SDS011;36525;49.398;7.614;2022-07-15T08:48:52;3.67;;;0.70;;
50569;SDS011;36525;49.398;7.614;2022-07-15T08:51:32;4.07;;;1.20;;
50569;SDS011;36525;49.398;7.614;2022-07-15T08:54:05;3.28;;;0.73;;
50569;SDS011;36525;49.398;7.614;2022-07-15T08:56:32;3.88;;;0.90;;
50569;SDS011;36525;49.398;7.614;2022-07-15T08:59:01;4.82;;;1.00;;
50569;SDS011;36525;49.398;7.614;2022-07-15T09:01:28;4.63;;;1.08;;
50569;SDS011;36525;49.398;7.614;2022-07-15T09:03:57;8.77;;;1.23;;
50569;SDS011;36525;49.398;7.614;2022-07-15T09:06:35;5.28;;;1.05;;
50569;SDS011;36525;49.398;7.614;2022-07-15T09:11:59;5.53;;;0.95;;
50569;SDS011;36525;49.398;7.614;2022-07-15T09:14:43;8.57;;;1.10;;
50569;SDS011;36525;49.398;7.614;2022-07-15T09:22:22;4.95;;;1.00;;
50569;SDS011;36525;49.398;7.614;2022-07-15T09:25:25;7.20;;;1.13;;
50569;SDS011;36525;49.398;7.614;2022-07-15T09:27:46;4.22;;;0.88;;
50569;SDS011;36525;49.398;7.614;2022-07-15T09:30:18;4.13;;;1.05;;
50569;SDS011;36525;49.398;7.614;2022-07-15T09:33:12;6.65;;;0.98;;
50569;SDS011;36525;49.398;7.614;2022-07-15T09:41:21;6.70;;;1.08;;
50569;SDS011;36525;49.398;7.614;2022-07-15T09:44:05;5.78;;;0.85;;
50569;SDS011;36525;49.398;7.614;2022-07-15T09:51:54;3.40;;;0.90;;
50569;SDS011;36525;49.398;7.614;2022-07-15T09:57:12;3.67;;;0.80;;
50569;SDS011;36525;49.398;7.614;2022-07-15T09:59:46;7.07;;;1.48;;
50569;SDS011;36525;49.398;7.614;2022-07-15T10:02:15;5.15;;;1.10;;
50569;SDS011;36525;49.398;7.614;2022-07-15T10:04:42;4.60;;;1.08;;
50569;SDS011;36525;49.398;7.614;2022-07-15T10:07:11;3.92;;;1.35;;
50569;SDS011;36525;49.398;7.614;2022-07-15T10:09:55;5.68;;;0.90;;
50569;SDS011;36525;49.398;7.614;2022-07-15T10:12:38;3.42;;;0.95;;
50569;SDS011;36525;49.398;7.614;2022-07-15T10:19:23;3.13;;;1.00;;
50569;SDS011;36525;49.398;7.614;2022-07-15T10:21:57;5.55;;;0.90;;
50569;SDS011;36525;49.398;7.614;2022-07-15T10:25:23;3.78;;;1.13;;
50569;SDS011;36525;49.398;7.614;2022-07-15T10:27:37;2.97;;;0.88;;
50569;SDS011;36525;49.398;7.614;2022-07-15T10:30:23;5.35;;;0.95;;
50569;SDS011;36525;49.398;7.614;2022-07-15T10:35:32;4.55;;;0.80;;
50569;SDS011;36525;49.398;7.614;2022-07-15T10:40:59;5.38;;;1.30;;
50569;SDS011;36525;49.398;7.614;2022-07-15T10:43:42;3.50;;;0.73;;
50569;SDS011;36525;49.398;7.614;2022-07-15T10:48:49;5.82;;;0.80;;
50569;SDS011;36525;49.398;7.614;2022-07-15T10:56:44;2.08;;;0.65;;
50569;SDS011;36525;49.398;7.614;2022-07-15T10:59:14;5.88;;;0.90;;
50569;SDS011;36525;49.398;7.614;2022-07-15T11:01:48;3.25;;;0.70;;
50569;SDS011;36525;49.398;7.614;2022-07-15T11:04:36;3.67;;;0.85;;
50569;SDS011;36525;49.398;7.614;2022-07-15T11:15:19;3.05;;;0.70;;
50569;SDS011;36525;49.398;7.614;2022-07-15T11:17:51;4.25;;;0.80;;
50569;SDS011;36525;49.398;7.614;2022-07-15T11:20:31;4.95;;;0.95;;
50569;SDS011;36525;49.398;7.614;2022-07-15T11:23:01;2.60;;;0.80;;
50569;SDS011;36525;49.398;7.614;2022-07-15T11:25:30;1.92;;;0.80;;
50569;SDS011;36525;49.398;7.614;2022-07-15T11:33:06;2.55;;;1.00;;
50569;SDS011;36525;49.398;7.614;2022-07-15T11:35:50;4.63;;;1.10;;
50569;SDS011;36525;49.398;7.614;2022-07-15T11:38:23;3.72;;;0.90;;
50569;SDS011;36525;49.398;7.614;2022-07-15T11:41:05;2.85;;;0.80;;
50569;SDS011;36525;49.398;7.614;2022-07-15T11:46:45;3.55;;;1.00;;
50569;SDS011;36525;49.398;7.614;2022-07-15T11:49:25;6.60;;;0.90;;
50569;SDS011;36525;49.398;7.614;2022-07-15T11:51:58;3.97;;;1.02;;
50569;SDS011;36525;49.398;7.614;2022-07-15T11:54:26;5.00;;;0.88;;
50569;SDS011;36525;49.398;7.614;2022-07-15T11:56:54;3.58;;;1.02;;
50569;SDS011;36525;49.398;7.614;2022-07-15T11:59:26;3.13;;;1.00;;
50569;SDS011;36525;49.398;7.614;2022-07-15T12:02:05;2.80;;;0.98;;
50569;SDS011;36525;49.398;7.614;2022-07-15T12:04:40;2.83;;;0.90;;
50569;SDS011;36525;49.398;7.614;2022-07-15T12:07:10;6.88;;;0.90;;
50569;SDS011;36525;49.398;7.614;2022-07-15T12:09:41;2.95;;;0.95;;
50569;SDS011;36525;49.398;7.614;2022-07-15T12:12:17;3.97;;;0.80;;
50569;SDS011;36525;49.398;7.614;2022-07-15T12:14:47;2.22;;;0.98;;
50569;SDS011;36525;49.398;7.614;2022-07-15T12:17:16;2.97;;;0.70;;
50569;SDS011;36525;49.398;7.614;2022-07-15T12:19:50;3.42;;;0.88;;
50569;SDS011;36525;49.398;7.614;2022-07-15T12:22:19;4.20;;;1.23;;
50569;SDS011;36525;49.398;7.614;2022-07-15T12:24:47;2.65;;;1.05;;
50569;SDS011;36525;49.398;7.614;2022-07-15T12:27:19;3.92;;;1.27;;
50569;SDS011;36525;49.398;7.614;2022-07-15T12:30:06;2.70;;;1.08;;
50569;SDS011;36525;49.398;7.614;2022-07-15T12:32:36;3.70;;;1.17;;
50569;SDS011;36525;49.398;7.614;2022-07-15T12:35:04;3.50;;;1.10;;
50569;SDS011;36525;49.398;7.614;2022-07-15T12:40:03;4.10;;;1.33;;
50569;SDS011;36525;49.398;7.614;2022-07-15T12:48:08;2.88;;;1.10;;
50569;SDS011;36525;49.398;7.614;2022-07-15T12:53:22;3.35;;;0.90;;
50569;SDS011;36525;49.398;7.614;2022-07-15T12:55:52;4.07;;;1.50;;
50569;SDS011;36525;49.398;7.614;2022-07-15T12:58:24;2.17;;;1.02;;
50569;SDS011;36525;49.398;7.614;2022-07-15T13:01:03;3.50;;;1.33;;
50569;SDS011;36525;49.398;7.614;2022-07-15T13:03:33;3.20;;;1.00;;
50569;SDS011;36525;49.398;7.614;2022-07-15T13:06:00;3.33;;;1.02;;
50569;SDS011;36525;49.398;7.614;2022-07-15T13:08:30;4.18;;;1.10;;
50569;SDS011;36525;49.398;7.614;2022-07-15T13:13:31;3.72;;;1.02;;
50569;SDS011;36525;49.398;7.614;2022-07-15T13:18:29;2.35;;;1.20;;
50569;SDS011;36525;49.398;7.614;2022-07-15T13:20:58;2.22;;;1.00;;
50569;SDS011;36525;49.398;7.614;2022-07-15T13:23:27;3.28;;;1.15;;
50569;SDS011;36525;49.398;7.614;2022-07-15T13:25:54;3.17;;;1.10;;
50569;SDS011;36525;49.398;7.614;2022-07-15T13:28:22;2.78;;;1.23;;
50569;SDS011;36525;49.398;7.614;2022-07-15T13:30:50;3.08;;;1.13;;
50569;SDS011;36525;49.398;7.614;2022-07-15T13:33:18;6.55;;;1.13;;
50569;SDS011;36525;49.398;7.614;2022-07-15T13:35:46;2.28;;;1.00;;
50569;SDS011;36525;49.398;7.614;2022-07-15T13:38:13;5.60;;;1.15;;
50569;SDS011;36525;49.398;7.614;2022-07-15T13:40:41;4.80;;;0.90;;
50569;SDS011;36525;49.398;7.614;2022-07-15T13:43:08;2.67;;;1.35;;
50569;SDS011;36525;49.398;7.614;2022-07-15T13:45:35;3.72;;;1.02;;
50569;SDS011;36525;49.398;7.614;2022-07-15T13:48:11;4.05;;;1.40;;
50569;SDS011;36525;49.398;7.614;2022-07-15T13:50:38;4.05;;;1.10;;
50569;SDS011;36525;49.398;7.614;2022-07-15T13:53:23;6.57;;;1.23;;
50569;SDS011;36525;49.398;7.614;2022-07-15T13:55:50;3.60;;;1.30;;
50569;SDS011;36525;49.398;7.614;2022-07-15T13:58:17;3.85;;;1.30;;
50569;SDS011;36525;49.398;7.614;2022-07-15T14:00:44;3.13;;;1.23;;
50569;SDS011;36525;49.398;7.614;2022-07-15T14:03:12;7.10;;;1.10;;
50569;SDS011;36525;49.398;7.614;2022-07-15T14:05:39;4.75;;;1.20;;
50569;SDS011;36525;49.398;7.614;2022-07-15T14:08:06;4.18;;;1.10;;
50569;SDS011;36525;49.398;7.614;2022-07-15T14:10:33;3.47;;;1.13;;
50569;SDS011;36525;49.398;7.614;2022-07-15T14:13:00;4.63;;;1.10;;
50569;SDS011;36525;49.398;7.614;2022-07-15T14:15:27;2.13;;;1.00;;
50569;SDS011;36525;49.398;7.614;2022-07-15T14:18:03;3.22;;;0.88;;
50569;SDS011;36525;49.398;7.614;2022-07-15T14:20:31;4.47;;;0.95;;
50569;SDS011;36525;49.398;7.614;2022-07-15T14:22:58;3.63;;;0.90;;
50569;SDS011;36525;49.398;7.614;2022-07-15T14:25:26;2.63;;;0.82;;
50569;SDS011;36525;49.398;7.614;2022-07-15T14:27:53;3.40;;;0.95;;
50569;SDS011;36525;49.398;7.614;2022-07-15T14:30:21;3.60;;;0.90;;
50569;SDS011;36525;49.398;7.614;2022-07-15T14:32:50;3.58;;;0.90;;
50569;SDS011;36525;49.398;7.614;2022-07-15T14:35:18;1.77;;;0.90;;
50569;SDS011;36525;49.398;7.614;2022-07-15T14:37:47;2.97;;;1.13;;
50569;SDS011;36525;49.398;7.614;2022-07-15T14:40:15;2.30;;;0.90;;
50569;SDS011;36525;49.398;7.614;2022-07-15T14:42:42;2.50;;;1.08;;
50569;SDS011;36525;49.398;7.614;2022-07-15T14:45:09;3.35;;;0.90;;
50569;SDS011;36525;49.398;7.614;2022-07-15T14:47:37;3.97;;;1.13;;
50569;SDS011;36525;49.398;7.614;2022-07-15T14:50:04;2.80;;;1.08;;
50569;SDS011;36525;49.398;7.614;2022-07-15T14:52:31;1.88;;;0.82;;
50569;SDS011;36525;49.398;7.614;2022-07-15T14:54:58;4.82;;;1.25;;
50569;SDS011;36525;49.398;7.614;2022-07-15T14:57:25;3.50;;;1.35;;
50569;SDS011;36525;49.398;7.614;2022-07-15T14:59:52;1.85;;;0.80;;
50569;SDS011;36525;49.398;7.614;2022-07-15T15:02:19;5.05;;;1.50;;
50569;SDS011;36525;49.398;7.614;2022-07-15T15:04:48;3.47;;;1.27;;
50569;SDS011;36525;49.398;7.614;2022-07-15T15:07:15;3.08;;;0.90;;
50569;SDS011;36525;49.398;7.614;2022-07-15T15:09:42;4.45;;;1.10;;
50569;SDS011;36525;49.398;7.614;2022-07-15T15:12:09;3.63;;;1.13;;
50569;SDS011;36525;49.398;7.614;2022-07-15T15:14:36;3.20;;;1.10;;
50569;SDS011;36525;49.398;7.614;2022-07-15T15:17:03;2.72;;;0.88;;
50569;SDS011;36525;49.398;7.614;2022-07-15T15:19:34;3.17;;;1.00;;
50569;SDS011;36525;49.398;7.614;2022-07-15T15:22:02;3.45;;;0.93;;
50569;SDS011;36525;49.398;7.614;2022-07-15T15:24:30;3.65;;;0.90;;
50569;SDS011;36525;49.398;7.614;2022-07-15T15:26:58;3.00;;;1.10;;
50569;SDS011;36525;49.398;7.614;2022-07-15T15:29:28;2.80;;;1.08;;
50569;SDS011;36525;49.398;7.614;2022-07-15T15:31:55;4.07;;;0.90;;
50569;SDS011;36525;49.398;7.614;2022-07-15T15:34:23;4.32;;;0.90;;
50569;SDS011;36525;49.398;7.614;2022-07-15T15:36:50;4.70;;;1.05;;
50569;SDS011;36525;49.398;7.614;2022-07-15T15:39:17;3.90;;;1.00;;
50569;SDS011;36525;49.398;7.614;2022-07-15T15:41:44;7.70;;;1.10;;
50569;SDS011;36525;49.398;7.614;2022-07-15T15:44:11;1.98;;;0.80;;
50569;SDS011;36525;49.398;7.614;2022-07-15T15:46:41;1.90;;;0.88;;
50569;SDS011;36525;49.398;7.614;2022-07-15T15:49:09;4.05;;;1.17;;
50569;SDS011;36525;49.398;7.614;2022-07-15T15:51:36;2.85;;;1.05;;
50569;SDS011;36525;49.398;7.614;2022-07-15T15:54:03;2.88;;;1.02;;
50569;SDS011;36525;49.398;7.614;2022-07-15T15:56:30;2.92;;;0.98;;
50569;SDS011;36525;49.398;7.614;2022-07-15T15:58:57;3.33;;;1.00;;
50569;SDS011;36525;49.398;7.614;2022-07-15T16:01:23;2.25;;;1.00;;
50569;SDS011;36525;49.398;7.614;2022-07-15T16:03:51;5.10;;;0.85;;
50569;SDS011;36525;49.398;7.614;2022-07-15T16:06:19;6.13;;;1.00;;
50569;SDS011;36525;49.398;7.614;2022-07-15T16:08:49;1.73;;;0.60;;
50569;SDS011;36525;49.398;7.614;2022-07-15T16:11:20;3.70;;;0.80;;